sensor_id;sensor_type;location;lat;lon;timestamp;P1;durP1;ratioP1;P2;durP2;ratioP2
13951;SDS011;39535;52.192;9.886;2024-01-11T00:01:46;83.97;;;38.60;;
13951;SDS011;39535;52.192;9.886;2024-01-11T00:04:13;71.87;;;37.33;;
13951;SDS011;39535;52.192;9.886;2024-01-11T00:06:41;82.93;;;40.10;;
13951;SDS011;39535;52.192;9.886;2024-01-11T00:09:38;77.67;;;38.03;;
13951;SDS011;39535;52.192;9.886;2024-01-11T00:12:08;70.97;;;35.83;;
13951;SDS011;39535;52.192;9.886;2024-01-11T00:14:34;73.20;;;37.40;;
13951;SDS011;39535;52.192;9.886;2024-01-11T00:17:03;79.77;;;38.57;;
13951;SDS011;39535;52.192;9.886;2024-01-11T00:19:30;75.40;;;37.23;;
13951;SDS011;39535;52.192;9.886;2024-01-11T00:21:56;76.60;;;37.90;;
13951;SDS011;39535;52.192;9.886;2024-01-11T00:24:23;85.00;;;37.57;;
13951;SDS011;39535;52.192;9.886;2024-01-11T00:26:50;87.73;;;39.50;;
13951;SDS011;39535;52.192;9.886;2024-01-11T00:29:16;74.97;;;37.13;;
13951;SDS011;39535;52.192;9.886;2024-01-11T00:31:43;77.13;;;39.33;;
13951;SDS011;39535;52.192;9.886;2024-01-11T00:34:11;69.30;;;35.33;;
13951;SDS011;39535;52.192;9.886;2024-01-11T00:36:38;71.47;;;35.60;;
13951;SDS011;39535;52.192;9.886;2024-01-11T00:39:04;77.17;;;38.60;;
13951;SDS011;39535;52.192;9.886;2024-01-11T00:41:31;75.83;;;37.03;;
13951;SDS011;39535;52.192;9.886;2024-01-11T00:43:58;75.73;;;36.23;;
13951;SDS011;39535;52.192;9.886;2024-01-11T00:46:24;74.70;;;36.63;;
13951;SDS011;39535;52.192;9.886;2024-01-11T00:48:51;71.00;;;36.97;;
13951;SDS011;39535;52.192;9.886;2024-01-11T00:51:18;76.83;;;35.10;;
13951;SDS011;39535;52.192;9.886;2024-01-11T00:53:45;71.90;;;36.00;;
13951;SDS011;39535;52.192;9.886;2024-01-11T00:56:15;72.67;;;36.03;;
13951;SDS011;39535;52.192;9.886;2024-01-11T00:58:42;79.60;;;36.07;;
13951;SDS011;39535;52.192;9.886;2024-01-11T01:01:08;68.70;;;34.93;;
13951;SDS011;39535;52.192;9.886;2024-01-11T01:03:35;77.50;;;35.43;;
13951;SDS011;39535;52.192;9.886;2024-01-11T01:06:02;68.33;;;33.13;;
13951;SDS011;39535;52.192;9.886;2024-01-11T01:08:31;61.00;;;31.33;;
13951;SDS011;39535;52.192;9.886;2024-01-11T01:10:58;59.20;;;31.13;;
13951;SDS011;39535;52.192;9.886;2024-01-11T01:13:24;58.90;;;29.93;;
13951;SDS011;39535;52.192;9.886;2024-01-11T01:15:51;57.80;;;30.17;;
13951;SDS011;39535;52.192;9.886;2024-01-11T01:18:18;51.27;;;29.37;;
13951;SDS011;39535;52.192;9.886;2024-01-11T01:20:44;52.70;;;28.67;;
13951;SDS011;39535;52.192;9.886;2024-01-11T01:23:11;60.70;;;30.43;;
13951;SDS011;39535;52.192;9.886;2024-01-11T01:25:39;62.00;;;31.43;;
13951;SDS011;39535;52.192;9.886;2024-01-11T01:28:06;56.63;;;30.57;;
13951;SDS011;39535;52.192;9.886;2024-01-11T01:30:32;59.67;;;29.73;;
13951;SDS011;39535;52.192;9.886;2024-01-11T01:32:59;65.87;;;31.63;;
13951;SDS011;39535;52.192;9.886;2024-01-11T01:35:25;60.67;;;30.57;;
13951;SDS011;39535;52.192;9.886;2024-01-11T01:37:51;61.73;;;30.90;;
13951;SDS011;39535;52.192;9.886;2024-01-11T01:40:18;62.37;;;32.40;;
13951;SDS011;39535;52.192;9.886;2024-01-11T01:42:46;70.47;;;34.07;;
13951;SDS011;39535;52.192;9.886;2024-01-11T01:45:14;63.43;;;33.23;;
13951;SDS011;39535;52.192;9.886;2024-01-11T01:47:42;76.97;;;34.27;;
13951;SDS011;39535;52.192;9.886;2024-01-11T01:50:10;72.60;;;33.90;;
13951;SDS011;39535;52.192;9.886;2024-01-11T01:52:38;65.03;;;31.97;;
13951;SDS011;39535;52.192;9.886;2024-01-11T01:55:07;67.00;;;33.67;;
13951;SDS011;39535;52.192;9.886;2024-01-11T01:57:36;66.40;;;32.50;;
13951;SDS011;39535;52.192;9.886;2024-01-11T02:00:05;62.10;;;33.97;;
13951;SDS011;39535;52.192;9.886;2024-01-11T02:02:35;67.33;;;33.00;;
13951;SDS011;39535;52.192;9.886;2024-01-11T02:05:01;61.00;;;33.07;;
13951;SDS011;39535;52.192;9.886;2024-01-11T02:07:28;70.17;;;34.93;;
13951;SDS011;39535;52.192;9.886;2024-01-11T02:09:54;70.10;;;33.17;;
13951;SDS011;39535;52.192;9.886;2024-01-11T02:12:21;63.40;;;32.90;;
13951;SDS011;39535;52.192;9.886;2024-01-11T02:14:49;72.83;;;33.10;;
13951;SDS011;39535;52.192;9.886;2024-01-11T02:17:17;69.93;;;33.80;;
13951;SDS011;39535;52.192;9.886;2024-01-11T02:19:44;59.30;;;31.27;;
13951;SDS011;39535;52.192;9.886;2024-01-11T02:22:12;61.50;;;30.43;;
13951;SDS011;39535;52.192;9.886;2024-01-11T02:24:46;61.00;;;29.63;;
13951;SDS011;39535;52.192;9.886;2024-01-11T02:27:12;55.23;;;29.40;;
13951;SDS011;39535;52.192;9.886;2024-01-11T02:29:39;57.67;;;29.30;;
13951;SDS011;39535;52.192;9.886;2024-01-11T02:32:05;59.13;;;28.70;;
13951;SDS011;39535;52.192;9.886;2024-01-11T02:34:33;56.43;;;28.73;;
13951;SDS011;39535;52.192;9.886;2024-01-11T02:37:00;60.33;;;29.57;;
13951;SDS011;39535;52.192;9.886;2024-01-11T02:39:26;66.90;;;31.93;;
13951;SDS011;39535;52.192;9.886;2024-01-11T02:41:55;46.90;;;27.37;;
13951;SDS011;39535;52.192;9.886;2024-01-11T02:44:22;51.67;;;27.73;;
13951;SDS011;39535;52.192;9.886;2024-01-11T02:46:48;41.30;;;25.13;;
13951;SDS011;39535;52.192;9.886;2024-01-11T02:49:15;46.47;;;25.07;;
13951;SDS011;39535;52.192;9.886;2024-01-11T02:51:41;35.23;;;21.40;;
13951;SDS011;39535;52.192;9.886;2024-01-11T02:54:07;32.57;;;21.37;;
13951;SDS011;39535;52.192;9.886;2024-01-11T02:56:34;34.93;;;19.23;;
13951;SDS011;39535;52.192;9.886;2024-01-11T02:59:02;38.87;;;22.03;;
13951;SDS011;39535;52.192;9.886;2024-01-11T03:01:28;29.60;;;19.20;;
13951;SDS011;39535;52.192;9.886;2024-01-11T03:03:55;40.20;;;21.70;;
13951;SDS011;39535;52.192;9.886;2024-01-11T03:06:22;36.40;;;22.33;;
13951;SDS011;39535;52.192;9.886;2024-01-11T03:08:49;35.20;;;21.17;;
13951;SDS011;39535;52.192;9.886;2024-01-11T03:11:15;36.13;;;22.43;;
13951;SDS011;39535;52.192;9.886;2024-01-11T03:13:42;39.07;;;22.70;;
13951;SDS011;39535;52.192;9.886;2024-01-11T03:16:10;35.20;;;21.17;;
13951;SDS011;39535;52.192;9.886;2024-01-11T03:18:36;38.77;;;20.23;;
13951;SDS011;39535;52.192;9.886;2024-01-11T03:21:03;34.33;;;20.37;;
13951;SDS011;39535;52.192;9.886;2024-01-11T03:23:30;38.63;;;22.30;;
13951;SDS011;39535;52.192;9.886;2024-01-11T03:25:56;40.00;;;22.67;;
13951;SDS011;39535;52.192;9.886;2024-01-11T03:28:22;41.93;;;24.13;;
13951;SDS011;39535;52.192;9.886;2024-01-11T03:30:49;43.97;;;24.17;;
13951;SDS011;39535;52.192;9.886;2024-01-11T03:33:16;45.60;;;23.40;;
13951;SDS011;39535;52.192;9.886;2024-01-11T03:35:43;55.30;;;28.30;;
13951;SDS011;39535;52.192;9.886;2024-01-11T03:38:09;69.70;;;31.67;;
13951;SDS011;39535;52.192;9.886;2024-01-11T03:40:36;60.67;;;31.00;;
13951;SDS011;39535;52.192;9.886;2024-01-11T03:43:02;60.53;;;30.93;;
13951;SDS011;39535;52.192;9.886;2024-01-11T03:45:29;64.50;;;30.53;;
13951;SDS011;39535;52.192;9.886;2024-01-11T03:47:56;53.73;;;28.63;;
13951;SDS011;39535;52.192;9.886;2024-01-11T03:50:23;62.80;;;30.90;;
13951;SDS011;39535;52.192;9.886;2024-01-11T03:52:50;57.43;;;27.87;;
13951;SDS011;39535;52.192;9.886;2024-01-11T03:55:16;65.23;;;30.27;;
13951;SDS011;39535;52.192;9.886;2024-01-11T03:57:42;69.63;;;32.20;;
13951;SDS011;39535;52.192;9.886;2024-01-11T04:00:09;69.40;;;32.30;;
13951;SDS011;39535;52.192;9.886;2024-01-11T04:02:36;65.40;;;30.57;;
13951;SDS011;39535;52.192;9.886;2024-01-11T04:05:03;74.00;;;34.97;;
13951;SDS011;39535;52.192;9.886;2024-01-11T04:07:31;72.37;;;34.70;;
13951;SDS011;39535;52.192;9.886;2024-01-11T04:09:57;67.23;;;33.50;;
13951;SDS011;39535;52.192;9.886;2024-01-11T04:12:24;69.90;;;33.77;;
13951;SDS011;39535;52.192;9.886;2024-01-11T04:14:50;71.87;;;34.10;;
13951;SDS011;39535;52.192;9.886;2024-01-11T04:17:16;73.87;;;33.33;;
13951;SDS011;39535;52.192;9.886;2024-01-11T04:19:43;66.40;;;32.63;;
13951;SDS011;39535;52.192;9.886;2024-01-11T04:22:09;71.53;;;33.73;;
13951;SDS011;39535;52.192;9.886;2024-01-11T04:24:37;68.23;;;31.57;;
13951;SDS011;39535;52.192;9.886;2024-01-11T04:27:03;64.03;;;31.70;;
13951;SDS011;39535;52.192;9.886;2024-01-11T04:29:30;65.07;;;31.13;;
13951;SDS011;39535;52.192;9.886;2024-01-11T04:31:56;67.73;;;33.00;;
13951;SDS011;39535;52.192;9.886;2024-01-11T04:34:23;67.00;;;33.47;;
13951;SDS011;39535;52.192;9.886;2024-01-11T04:36:49;64.57;;;32.53;;
13951;SDS011;39535;52.192;9.886;2024-01-11T04:39:16;58.13;;;29.73;;
13951;SDS011;39535;52.192;9.886;2024-01-11T04:41:43;65.00;;;31.67;;
13951;SDS011;39535;52.192;9.886;2024-01-11T04:44:10;66.33;;;31.97;;
13951;SDS011;39535;52.192;9.886;2024-01-11T04:46:36;61.07;;;30.83;;
13951;SDS011;39535;52.192;9.886;2024-01-11T04:49:02;64.07;;;30.73;;
13951;SDS011;39535;52.192;9.886;2024-01-11T04:51:29;67.30;;;33.13;;
13951;SDS011;39535;52.192;9.886;2024-01-11T04:53:55;64.20;;;32.30;;
13951;SDS011;39535;52.192;9.886;2024-01-11T04:56:22;64.27;;;31.50;;
13951;SDS011;39535;52.192;9.886;2024-01-11T04:58:49;57.23;;;31.27;;
13951;SDS011;39535;52.192;9.886;2024-01-11T05:01:16;58.53;;;29.40;;
13951;SDS011;39535;52.192;9.886;2024-01-11T05:03:44;59.27;;;29.03;;
13951;SDS011;39535;52.192;9.886;2024-01-11T05:06:14;57.70;;;30.13;;
13951;SDS011;39535;52.192;9.886;2024-01-11T05:08:41;57.50;;;29.20;;
13951;SDS011;39535;52.192;9.886;2024-01-11T05:11:08;50.50;;;26.73;;
13951;SDS011;39535;52.192;9.886;2024-01-11T05:13:40;58.40;;;28.33;;
13951;SDS011;39535;52.192;9.886;2024-01-11T05:16:08;55.83;;;27.40;;
13951;SDS011;39535;52.192;9.886;2024-01-11T05:18:43;55.40;;;28.97;;
13951;SDS011;39535;52.192;9.886;2024-01-11T05:21:09;56.87;;;29.80;;
13951;SDS011;39535;52.192;9.886;2024-01-11T05:23:36;53.57;;;28.67;;
13951;SDS011;39535;52.192;9.886;2024-01-11T05:26:02;51.87;;;28.33;;
13951;SDS011;39535;52.192;9.886;2024-01-11T05:28:29;56.13;;;28.40;;
13951;SDS011;39535;52.192;9.886;2024-01-11T05:30:55;60.40;;;29.97;;
13951;SDS011;39535;52.192;9.886;2024-01-11T05:33:23;72.13;;;32.17;;
13951;SDS011;39535;52.192;9.886;2024-01-11T05:35:50;68.83;;;32.90;;
13951;SDS011;39535;52.192;9.886;2024-01-11T05:38:18;66.80;;;32.37;;
13951;SDS011;39535;52.192;9.886;2024-01-11T05:40:45;62.90;;;32.70;;
13951;SDS011;39535;52.192;9.886;2024-01-11T05:43:11;61.67;;;30.47;;
13951;SDS011;39535;52.192;9.886;2024-01-11T05:45:38;64.20;;;32.50;;
13951;SDS011;39535;52.192;9.886;2024-01-11T05:48:04;65.73;;;33.13;;
13951;SDS011;39535;52.192;9.886;2024-01-11T05:50:33;70.27;;;34.13;;
13951;SDS011;39535;52.192;9.886;2024-01-11T05:53:00;62.73;;;31.73;;
13951;SDS011;39535;52.192;9.886;2024-01-11T05:55:26;72.53;;;33.67;;
13951;SDS011;39535;52.192;9.886;2024-01-11T05:57:52;68.37;;;33.73;;
13951;SDS011;39535;52.192;9.886;2024-01-11T06:00:19;74.30;;;35.23;;
13951;SDS011;39535;52.192;9.886;2024-01-11T06:02:47;71.93;;;32.43;;
13951;SDS011;39535;52.192;9.886;2024-01-11T06:05:14;71.20;;;35.43;;
13951;SDS011;39535;52.192;9.886;2024-01-11T06:07:41;71.53;;;34.53;;
13951;SDS011;39535;52.192;9.886;2024-01-11T06:10:08;74.27;;;35.40;;
13951;SDS011;39535;52.192;9.886;2024-01-11T06:12:35;77.23;;;35.57;;
13951;SDS011;39535;52.192;9.886;2024-01-11T06:15:02;71.27;;;35.20;;
13951;SDS011;39535;52.192;9.886;2024-01-11T06:17:29;72.37;;;33.73;;
13951;SDS011;39535;52.192;9.886;2024-01-11T06:19:58;65.93;;;34.57;;
13951;SDS011;39535;52.192;9.886;2024-01-11T06:22:24;77.50;;;37.27;;
13951;SDS011;39535;52.192;9.886;2024-01-11T06:24:52;76.60;;;36.83;;
13951;SDS011;39535;52.192;9.886;2024-01-11T06:27:19;77.60;;;36.37;;
13951;SDS011;39535;52.192;9.886;2024-01-11T06:29:46;75.00;;;34.60;;
13951;SDS011;39535;52.192;9.886;2024-01-11T06:32:12;80.60;;;36.73;;
13951;SDS011;39535;52.192;9.886;2024-01-11T06:34:39;70.30;;;35.03;;
13951;SDS011;39535;52.192;9.886;2024-01-11T06:37:10;72.43;;;35.90;;
13951;SDS011;39535;52.192;9.886;2024-01-11T06:39:37;83.30;;;36.67;;
13951;SDS011;39535;52.192;9.886;2024-01-11T06:42:06;75.27;;;36.93;;
13951;SDS011;39535;52.192;9.886;2024-01-11T06:44:32;77.23;;;34.30;;
13951;SDS011;39535;52.192;9.886;2024-01-11T06:46:59;73.00;;;34.70;;
13951;SDS011;39535;52.192;9.886;2024-01-11T06:49:26;70.90;;;35.23;;
13951;SDS011;39535;52.192;9.886;2024-01-11T06:51:53;70.97;;;34.70;;
13951;SDS011;39535;52.192;9.886;2024-01-11T06:54:20;67.47;;;35.80;;
13951;SDS011;39535;52.192;9.886;2024-01-11T06:56:46;76.70;;;35.37;;
13951;SDS011;39535;52.192;9.886;2024-01-11T06:59:15;77.97;;;37.80;;
13951;SDS011;39535;52.192;9.886;2024-01-11T07:01:42;73.43;;;35.63;;
13951;SDS011;39535;52.192;9.886;2024-01-11T07:04:09;71.63;;;34.33;;
13951;SDS011;39535;52.192;9.886;2024-01-11T07:06:37;88.37;;;37.23;;
13951;SDS011;39535;52.192;9.886;2024-01-11T07:09:04;90.23;;;40.97;;
13951;SDS011;39535;52.192;9.886;2024-01-11T07:11:31;84.60;;;38.17;;
13951;SDS011;39535;52.192;9.886;2024-01-11T07:13:58;75.50;;;35.37;;
13951;SDS011;39535;52.192;9.886;2024-01-11T07:16:26;73.97;;;35.70;;
13951;SDS011;39535;52.192;9.886;2024-01-11T07:18:52;75.50;;;36.60;;
13951;SDS011;39535;52.192;9.886;2024-01-11T07:21:22;81.63;;;37.53;;
13951;SDS011;39535;52.192;9.886;2024-01-11T07:23:54;81.30;;;37.13;;
13951;SDS011;39535;52.192;9.886;2024-01-11T07:26:21;79.97;;;35.20;;
13951;SDS011;39535;52.192;9.886;2024-01-11T07:28:48;80.53;;;37.80;;
13951;SDS011;39535;52.192;9.886;2024-01-11T07:31:14;80.47;;;35.37;;
13951;SDS011;39535;52.192;9.886;2024-01-11T07:33:42;77.93;;;37.90;;
13951;SDS011;39535;52.192;9.886;2024-01-11T07:36:08;72.23;;;34.23;;
13951;SDS011;39535;52.192;9.886;2024-01-11T07:38:35;86.03;;;41.37;;
13951;SDS011;39535;52.192;9.886;2024-01-11T07:41:01;87.50;;;38.87;;
13951;SDS011;39535;52.192;9.886;2024-01-11T07:43:27;85.60;;;40.60;;
13951;SDS011;39535;52.192;9.886;2024-01-11T07:45:54;82.97;;;39.90;;
13951;SDS011;39535;52.192;9.886;2024-01-11T07:48:21;82.80;;;39.47;;
13951;SDS011;39535;52.192;9.886;2024-01-11T07:50:49;83.73;;;38.23;;
13951;SDS011;39535;52.192;9.886;2024-01-11T07:53:15;82.87;;;38.53;;
13951;SDS011;39535;52.192;9.886;2024-01-11T07:55:42;75.40;;;36.00;;
13951;SDS011;39535;52.192;9.886;2024-01-11T07:58:08;76.80;;;36.93;;
13951;SDS011;39535;52.192;9.886;2024-01-11T08:00:37;61.13;;;31.30;;
13951;SDS011;39535;52.192;9.886;2024-01-11T08:03:04;64.07;;;31.03;;
13951;SDS011;39535;52.192;9.886;2024-01-11T08:05:30;59.10;;;31.33;;
13951;SDS011;39535;52.192;9.886;2024-01-11T08:07:58;59.40;;;29.83;;
13951;SDS011;39535;52.192;9.886;2024-01-11T08:10:26;64.33;;;30.00;;
13951;SDS011;39535;52.192;9.886;2024-01-11T08:12:53;62.83;;;31.93;;
13951;SDS011;39535;52.192;9.886;2024-01-11T08:15:20;57.80;;;29.83;;
13951;SDS011;39535;52.192;9.886;2024-01-11T08:17:46;68.30;;;32.87;;
13951;SDS011;39535;52.192;9.886;2024-01-11T08:20:13;65.97;;;30.13;;
13951;SDS011;39535;52.192;9.886;2024-01-11T08:22:40;68.20;;;33.43;;
13951;SDS011;39535;52.192;9.886;2024-01-11T08:25:09;64.10;;;30.97;;
13951;SDS011;39535;52.192;9.886;2024-01-11T08:27:36;66.90;;;32.90;;
13951;SDS011;39535;52.192;9.886;2024-01-11T08:30:02;71.13;;;31.60;;
13951;SDS011;39535;52.192;9.886;2024-01-11T08:32:30;66.83;;;32.13;;
13951;SDS011;39535;52.192;9.886;2024-01-11T08:35:03;65.27;;;30.93;;
13951;SDS011;39535;52.192;9.886;2024-01-11T08:37:29;63.07;;;32.37;;
13951;SDS011;39535;52.192;9.886;2024-01-11T08:39:56;62.63;;;31.00;;
13951;SDS011;39535;52.192;9.886;2024-01-11T08:42:24;66.83;;;30.97;;
13951;SDS011;39535;52.192;9.886;2024-01-11T08:44:50;57.60;;;31.07;;
13951;SDS011;39535;52.192;9.886;2024-01-11T08:47:17;56.43;;;29.03;;
13951;SDS011;39535;52.192;9.886;2024-01-11T08:49:43;58.87;;;28.40;;
13951;SDS011;39535;52.192;9.886;2024-01-11T08:52:10;50.73;;;29.53;;
13951;SDS011;39535;52.192;9.886;2024-01-11T08:54:36;67.37;;;29.23;;
13951;SDS011;39535;52.192;9.886;2024-01-11T08:57:02;40.63;;;26.13;;
13951;SDS011;39535;52.192;9.886;2024-01-11T08:59:31;54.63;;;27.93;;
13951;SDS011;39535;52.192;9.886;2024-01-11T09:01:57;56.00;;;27.73;;
13951;SDS011;39535;52.192;9.886;2024-01-11T09:04:24;49.00;;;26.17;;
13951;SDS011;39535;52.192;9.886;2024-01-11T09:06:53;50.07;;;26.90;;
13951;SDS011;39535;52.192;9.886;2024-01-11T09:09:21;49.50;;;26.47;;
13951;SDS011;39535;52.192;9.886;2024-01-11T09:11:47;54.77;;;25.63;;
13951;SDS011;39535;52.192;9.886;2024-01-11T09:14:14;52.97;;;26.37;;
13951;SDS011;39535;52.192;9.886;2024-01-11T09:16:42;59.30;;;27.77;;
13951;SDS011;39535;52.192;9.886;2024-01-11T09:19:09;44.17;;;25.77;;
13951;SDS011;39535;52.192;9.886;2024-01-11T09:21:36;45.37;;;25.20;;
13951;SDS011;39535;52.192;9.886;2024-01-11T09:24:02;48.10;;;24.17;;
13951;SDS011;39535;52.192;9.886;2024-01-11T09:26:29;49.10;;;28.17;;
13951;SDS011;39535;52.192;9.886;2024-01-11T09:28:56;43.53;;;24.80;;
13951;SDS011;39535;52.192;9.886;2024-01-11T09:31:22;53.33;;;27.50;;
13951;SDS011;39535;52.192;9.886;2024-01-11T09:33:50;47.97;;;26.23;;
13951;SDS011;39535;52.192;9.886;2024-01-11T09:36:17;46.43;;;26.13;;
13951;SDS011;39535;52.192;9.886;2024-01-11T09:38:44;48.30;;;25.30;;
13951;SDS011;39535;52.192;9.886;2024-01-11T09:41:12;53.97;;;26.97;;
13951;SDS011;39535;52.192;9.886;2024-01-11T09:43:39;51.77;;;27.93;;
13951;SDS011;39535;52.192;9.886;2024-01-11T09:46:07;54.93;;;27.73;;
13951;SDS011;39535;52.192;9.886;2024-01-11T09:48:36;48.73;;;26.73;;
13951;SDS011;39535;52.192;9.886;2024-01-11T09:51:06;43.23;;;24.23;;
13951;SDS011;39535;52.192;9.886;2024-01-11T09:53:36;43.57;;;23.20;;
13951;SDS011;39535;52.192;9.886;2024-01-11T09:56:04;37.20;;;20.47;;
13951;SDS011;39535;52.192;9.886;2024-01-11T09:58:34;37.43;;;19.57;;
13951;SDS011;39535;52.192;9.886;2024-01-11T10:01:01;25.80;;;17.07;;
13951;SDS011;39535;52.192;9.886;2024-01-11T10:03:28;26.73;;;16.17;;
13951;SDS011;39535;52.192;9.886;2024-01-11T10:05:57;32.13;;;19.40;;
13951;SDS011;39535;52.192;9.886;2024-01-11T10:08:25;28.20;;;16.10;;
13951;SDS011;39535;52.192;9.886;2024-01-11T10:10:53;27.23;;;17.33;;
13951;SDS011;39535;52.192;9.886;2024-01-11T10:13:22;28.73;;;17.33;;
13951;SDS011;39535;52.192;9.886;2024-01-11T10:15:52;27.37;;;17.97;;
13951;SDS011;39535;52.192;9.886;2024-01-11T10:18:19;31.73;;;17.17;;
13951;SDS011;39535;52.192;9.886;2024-01-11T10:20:48;34.83;;;18.57;;
13951;SDS011;39535;52.192;9.886;2024-01-11T10:23:17;36.50;;;19.43;;
13951;SDS011;39535;52.192;9.886;2024-01-11T10:25:45;42.03;;;18.97;;
13951;SDS011;39535;52.192;9.886;2024-01-11T10:28:12;38.30;;;20.47;;
13951;SDS011;39535;52.192;9.886;2024-01-11T10:30:39;42.77;;;21.80;;
13951;SDS011;39535;52.192;9.886;2024-01-11T10:33:06;39.63;;;20.33;;
13951;SDS011;39535;52.192;9.886;2024-01-11T10:35:33;43.23;;;17.53;;
13951;SDS011;39535;52.192;9.886;2024-01-11T10:38:00;42.37;;;18.33;;
13951;SDS011;39535;52.192;9.886;2024-01-11T10:40:34;41.27;;;19.47;;
13951;SDS011;39535;52.192;9.886;2024-01-11T10:43:02;46.67;;;18.30;;
13951;SDS011;39535;52.192;9.886;2024-01-11T10:45:31;37.30;;;17.63;;
13951;SDS011;39535;52.192;9.886;2024-01-11T10:48:04;31.53;;;14.53;;
13951;SDS011;39535;52.192;9.886;2024-01-11T10:50:34;26.80;;;14.30;;
13951;SDS011;39535;52.192;9.886;2024-01-11T10:53:03;28.90;;;14.67;;
13951;SDS011;39535;52.192;9.886;2024-01-11T10:55:33;25.63;;;14.33;;
13951;SDS011;39535;52.192;9.886;2024-01-11T10:58:02;34.53;;;16.20;;
13951;SDS011;39535;52.192;9.886;2024-01-11T11:00:29;32.67;;;16.43;;
13951;SDS011;39535;52.192;9.886;2024-01-11T11:02:57;28.57;;;16.80;;
13951;SDS011;39535;52.192;9.886;2024-01-11T11:05:25;42.67;;;18.43;;
13951;SDS011;39535;52.192;9.886;2024-01-11T11:07:54;36.87;;;18.27;;
13951;SDS011;39535;52.192;9.886;2024-01-11T11:10:22;28.23;;;16.87;;
13951;SDS011;39535;52.192;9.886;2024-01-11T11:12:51;43.43;;;21.83;;
13951;SDS011;39535;52.192;9.886;2024-01-11T11:15:21;38.90;;;21.40;;
13951;SDS011;39535;52.192;9.886;2024-01-11T11:17:49;40.53;;;20.70;;
13951;SDS011;39535;52.192;9.886;2024-01-11T11:20:18;32.03;;;18.07;;
13951;SDS011;39535;52.192;9.886;2024-01-11T11:22:47;35.27;;;21.60;;
13951;SDS011;39535;52.192;9.886;2024-01-11T11:25:23;30.30;;;18.73;;
13951;SDS011;39535;52.192;9.886;2024-01-11T11:27:50;30.70;;;19.00;;
13951;SDS011;39535;52.192;9.886;2024-01-11T11:30:18;36.47;;;19.13;;
13951;SDS011;39535;52.192;9.886;2024-01-11T11:32:46;34.07;;;18.50;;
13951;SDS011;39535;52.192;9.886;2024-01-11T11:35:12;31.43;;;20.30;;
13951;SDS011;39535;52.192;9.886;2024-01-11T11:37:39;41.50;;;25.13;;
13951;SDS011;39535;52.192;9.886;2024-01-11T11:40:06;33.57;;;22.17;;
13951;SDS011;39535;52.192;9.886;2024-01-11T11:42:34;43.83;;;23.73;;
13951;SDS011;39535;52.192;9.886;2024-01-11T11:45:01;47.77;;;25.40;;
13951;SDS011;39535;52.192;9.886;2024-01-11T11:47:33;43.87;;;23.90;;
13951;SDS011;39535;52.192;9.886;2024-01-11T11:50:05;42.40;;;24.47;;
13951;SDS011;39535;52.192;9.886;2024-01-11T11:52:33;46.50;;;26.73;;
13951;SDS011;39535;52.192;9.886;2024-01-11T11:55:00;50.83;;;25.37;;
13951;SDS011;39535;52.192;9.886;2024-01-11T11:57:27;38.57;;;23.57;;
13951;SDS011;39535;52.192;9.886;2024-01-11T11:59:54;40.00;;;24.73;;
13951;SDS011;39535;52.192;9.886;2024-01-11T12:02:22;42.33;;;24.67;;
13951;SDS011;39535;52.192;9.886;2024-01-11T12:04:50;43.93;;;25.00;;
13951;SDS011;39535;52.192;9.886;2024-01-11T12:07:18;45.93;;;23.50;;
13951;SDS011;39535;52.192;9.886;2024-01-11T12:09:46;40.67;;;22.97;;
13951;SDS011;39535;52.192;9.886;2024-01-11T12:12:13;45.00;;;24.17;;
13951;SDS011;39535;52.192;9.886;2024-01-11T12:14:40;43.70;;;22.67;;
13951;SDS011;39535;52.192;9.886;2024-01-11T12:17:07;52.10;;;25.00;;
13951;SDS011;39535;52.192;9.886;2024-01-11T12:19:34;57.47;;;26.80;;
13951;SDS011;39535;52.192;9.886;2024-01-11T12:22:00;45.80;;;24.80;;
13951;SDS011;39535;52.192;9.886;2024-01-11T12:24:28;53.77;;;26.40;;
13951;SDS011;39535;52.192;9.886;2024-01-11T12:26:56;50.43;;;24.00;;
13951;SDS011;39535;52.192;9.886;2024-01-11T12:29:23;46.17;;;24.10;;
13951;SDS011;39535;52.192;9.886;2024-01-11T12:31:49;55.03;;;27.23;;
13951;SDS011;39535;52.192;9.886;2024-01-11T12:34:16;50.87;;;28.23;;
13951;SDS011;39535;52.192;9.886;2024-01-11T12:36:43;61.07;;;29.63;;
13951;SDS011;39535;52.192;9.886;2024-01-11T12:39:10;59.27;;;29.10;;
13951;SDS011;39535;52.192;9.886;2024-01-11T12:41:39;58.20;;;27.77;;
13951;SDS011;39535;52.192;9.886;2024-01-11T12:44:06;58.20;;;29.57;;
13951;SDS011;39535;52.192;9.886;2024-01-11T12:46:32;59.67;;;30.50;;
13951;SDS011;39535;52.192;9.886;2024-01-11T12:48:59;62.67;;;30.60;;
13951;SDS011;39535;52.192;9.886;2024-01-11T12:51:25;56.73;;;30.13;;
13951;SDS011;39535;52.192;9.886;2024-01-11T12:53:52;64.77;;;30.40;;
13951;SDS011;39535;52.192;9.886;2024-01-11T12:56:20;68.20;;;32.13;;
13951;SDS011;39535;52.192;9.886;2024-01-11T12:58:48;68.33;;;32.13;;
13951;SDS011;39535;52.192;9.886;2024-01-11T13:01:15;74.03;;;31.87;;
13951;SDS011;39535;52.192;9.886;2024-01-11T13:03:44;59.87;;;31.80;;
13951;SDS011;39535;52.192;9.886;2024-01-11T13:06:12;76.63;;;33.43;;
13951;SDS011;39535;52.192;9.886;2024-01-11T13:08:40;70.63;;;35.57;;
13951;SDS011;39535;52.192;9.886;2024-01-11T13:11:07;70.47;;;34.20;;
13951;SDS011;39535;52.192;9.886;2024-01-11T13:13:34;71.07;;;33.63;;
13951;SDS011;39535;52.192;9.886;2024-01-11T13:16:03;72.97;;;34.80;;
13951;SDS011;39535;52.192;9.886;2024-01-11T13:18:31;69.47;;;31.33;;
13951;SDS011;39535;52.192;9.886;2024-01-11T13:20:57;69.87;;;32.93;;
13951;SDS011;39535;52.192;9.886;2024-01-11T13:23:24;84.60;;;35.13;;
13951;SDS011;39535;52.192;9.886;2024-01-11T13:25:50;86.27;;;34.13;;
13951;SDS011;39535;52.192;9.886;2024-01-11T13:28:17;74.60;;;32.43;;
13951;SDS011;39535;52.192;9.886;2024-01-11T13:30:44;72.20;;;32.07;;
13951;SDS011;39535;52.192;9.886;2024-01-11T13:33:12;78.10;;;31.97;;
13951;SDS011;39535;52.192;9.886;2024-01-11T13:35:39;68.13;;;29.73;;
13951;SDS011;39535;52.192;9.886;2024-01-11T13:38:07;64.60;;;28.53;;
13951;SDS011;39535;52.192;9.886;2024-01-11T13:40:34;70.27;;;31.17;;
13951;SDS011;39535;52.192;9.886;2024-01-11T13:43:01;70.40;;;30.80;;
13951;SDS011;39535;52.192;9.886;2024-01-11T13:45:28;67.97;;;29.03;;
13951;SDS011;39535;52.192;9.886;2024-01-11T13:47:54;64.80;;;28.83;;
13951;SDS011;39535;52.192;9.886;2024-01-11T13:50:22;59.47;;;28.07;;
13951;SDS011;39535;52.192;9.886;2024-01-11T13:52:49;63.47;;;28.00;;
13951;SDS011;39535;52.192;9.886;2024-01-11T13:55:16;64.30;;;28.83;;
13951;SDS011;39535;52.192;9.886;2024-01-11T13:57:43;69.53;;;30.03;;
13951;SDS011;39535;52.192;9.886;2024-01-11T14:00:10;73.30;;;30.27;;
13951;SDS011;39535;52.192;9.886;2024-01-11T14:02:37;61.70;;;27.17;;
13951;SDS011;39535;52.192;9.886;2024-01-11T14:05:04;63.30;;;27.37;;
13951;SDS011;39535;52.192;9.886;2024-01-11T14:07:36;69.97;;;27.03;;
13951;SDS011;39535;52.192;9.886;2024-01-11T14:10:02;55.03;;;26.57;;
13951;SDS011;39535;52.192;9.886;2024-01-11T14:12:30;65.00;;;29.17;;
13951;SDS011;39535;52.192;9.886;2024-01-11T14:14:57;63.80;;;27.27;;
13951;SDS011;39535;52.192;9.886;2024-01-11T14:17:25;58.47;;;26.33;;
13951;SDS011;39535;52.192;9.886;2024-01-11T14:19:51;52.20;;;25.63;;
13951;SDS011;39535;52.192;9.886;2024-01-11T14:22:18;62.23;;;27.87;;